Time;durP1;ratioP1;P1;durP2;ratioP2;P2;SDS_P1;SDS_P2;PMS_P1;PMS_P2;Temp;Humidity;BMP_temperature;BMP_pressure;BME280_temperature;BME280_humidity;BME280_pressure;Samples;Min_cycle;Max_cycle;Signal;HPM_P1;HPM_P2
2022/11/20 00:01:40;;;;;;;19.55;9.88;;;2.50;99.90;;;;;;5000357;28;20030;-67
2022/11/20 00:04:06;;;;;;;16.67;8.18;;;2.50;99.90;;;;;;5000627;28;20188;-67
2022/11/20 00:06:31;;;;;;;17.27;8.38;;;2.50;99.90;;;;;;4999166;28;20021;-67
2022/11/20 00:08:59;;;;;;;20.70;9.55;;;2.50;99.90;;;;;;4992617;28;20030;-67
2022/11/20 00:11:27;;;;;;;15.63;8.80;;;2.50;99.90;;;;;;5001324;28;20578;-67
2022/11/20 00:13:57;;;;;;;15.95;8.73;;;2.60;99.90;;;;;;5003681;28;20026;-68
2022/11/20 00:16:24;;;;;;;15.88;8.38;;;2.60;99.90;;;;;;4996842;28;20500;-66
2022/11/20 00:18:50;;;;;;;17.73;8.65;;;2.50;99.90;;;;;;5001332;28;20068;-67
2022/11/20 00:21:21;;;;;;;16.77;8.88;;;2.50;99.90;;;;;;4999092;28;20106;-67
2022/11/20 00:23:47;;;;;;;18.25;8.73;;;2.60;99.90;;;;;;4999026;28;20116;-67
2022/11/20 00:26:14;;;;;;;15.10;8.25;;;2.60;99.90;;;;;;4996376;28;20129;-68
2022/11/20 00:28:41;;;;;;;16.02;8.52;;;2.60;99.90;;;;;;5000340;28;20057;-67
2022/11/20 00:31:10;;;;;;;17.98;7.97;;;2.60;99.90;;;;;;5002686;28;20026;-68
2022/11/20 00:33:35;;;;;;;16.98;7.63;;;2.60;99.90;;;;;;5006542;28;20106;-66
2022/11/20 00:36:09;;;;;;;17.13;8.65;;;2.60;99.90;;;;;;4998779;28;20462;-67
2022/11/20 00:38:35;;;;;;;17.13;8.68;;;2.60;99.90;;;;;;4997525;28;20356;-68
2022/11/20 00:41:06;;;;;;;14.98;8.05;;;2.60;99.90;;;;;;4999289;28;20032;-68
2022/11/20 00:43:32;;;;;;;15.90;8.23;;;2.60;99.90;;;;;;4976953;28;20069;-68
2022/11/20 00:46:04;;;;;;;14.93;8.32;;;2.60;99.90;;;;;;5004036;28;20479;-67
2022/11/20 00:48:30;;;;;;;17.55;8.70;;;2.60;99.90;;;;;;4994837;28;20038;-67
2022/11/20 00:50:56;;;;;;;14.10;8.13;;;2.60;99.90;;;;;;5000398;28;20052;-67
2022/11/20 00:53:22;;;;;;;19.92;9.40;;;2.60;99.90;;;;;;4990373;28;20492;-66
2022/11/20 00:55:57;;;;;;;14.43;7.85;;;2.50;99.90;;;;;;4998540;28;20022;-67
2022/11/20 00:58:23;;;;;;;16.27;8.57;;;2.60;99.90;;;;;;5002335;28;20388;-66
2022/11/20 01:00:49;;;;;;;16.92;8.93;;;2.60;99.90;;;;;;4997993;28;20061;-67
2022/11/20 01:03:16;;;;;;;17.17;8.82;;;2.50;99.90;;;;;;4992347;28;20061;-68
2022/11/20 01:05:42;;;;;;;16.65;8.10;;;2.60;99.90;;;;;;5000281;28;20064;-67
2022/11/20 01:08:08;;;;;;;18.35;9.02;;;2.60;99.90;;;;;;4999860;28;20026;-67
2022/11/20 01:10:33;;;;;;;18.30;9.07;;;2.60;99.90;;;;;;5005243;28;20445;-67
2022/11/20 01:15:43;;;;;;;16.67;8.02;;;2.60;99.90;;;;;;4996235;28;20069;-68
2022/11/20 01:18:08;;;;;;;16.42;8.45;;;2.70;99.90;;;;;;5005441;28;20053;-67
2022/11/20 01:20:35;;;;;;;16.75;8.00;;;2.70;99.90;;;;;;4997493;28;20038;-67
2022/11/20 01:23:02;;;;;;;15.18;8.23;;;2.60;99.90;;;;;;5000995;28;20488;-67
2022/11/20 01:25:27;;;;;;;15.95;9.20;;;2.60;99.90;;;;;;5009406;28;20022;-67
2022/11/20 01:27:53;;;;;;;14.10;7.75;;;2.50;99.90;;;;;;5000761;28;20496;-68
2022/11/20 01:30:18;;;;;;;15.52;8.52;;;2.50;99.90;;;;;;5001962;28;20514;-67
2022/11/20 01:32:44;;;;;;;16.35;9.30;;;2.50;99.90;;;;;;4997987;28;20394;-67
2022/11/20 01:35:10;;;;;;;13.23;6.78;;;2.40;99.90;;;;;;5006193;28;20025;-67
2022/11/20 01:37:35;;;;;;;14.93;8.15;;;2.40;99.90;;;;;;5005586;28;20060;-67
2022/11/20 01:40:01;;;;;;;16.17;8.13;;;2.40;99.90;;;;;;4993276;28;20043;-66
2022/11/20 01:45:45;;;;;;;16.52;7.78;;;2.50;99.90;;;;;;5000790;28;20037;-67
2022/11/20 01:48:11;;;;;;;17.42;9.02;;;2.50;99.90;;;;;;5000557;28;20066;-67
2022/11/20 01:50:36;;;;;;;15.88;8.60;;;2.50;99.90;;;;;;5000386;28;20104;-67
2022/11/20 01:53:07;;;;;;;18.45;8.40;;;2.50;99.90;;;;;;5005970;28;20092;-68
2022/11/20 01:55:36;;;;;;;12.52;7.93;;;2.50;99.90;;;;;;5006492;28;20036;-67
2022/11/20 01:58:02;;;;;;;17.65;9.05;;;2.50;99.90;;;;;;5004208;28;20032;-68
2022/11/20 02:00:28;;;;;;;17.30;9.18;;;2.60;99.90;;;;;;5002134;28;20399;-67
2022/11/20 02:02:58;;;;;;;19.98;9.48;;;2.50;99.90;;;;;;5005490;28;20034;-67
2022/11/20 02:05:47;;;;;;;14.05;8.43;;;2.50;99.90;;;;;;5001668;28;20025;-67
2022/11/20 02:08:13;;;;;;;18.02;8.70;;;2.60;99.90;;;;;;5006866;28;20033;-67
2022/11/20 02:10:39;;;;;;;15.95;8.60;;;2.70;99.90;;;;;;4998049;28;20029;-66
2022/11/20 02:15:49;;;;;;;17.80;8.52;;;2.70;99.90;;;;;;5001223;28;20173;-68
2022/11/20 02:18:18;;;;;;;17.67;8.90;;;2.70;99.90;;;;;;5000913;28;20097;-67
2022/11/20 02:20:47;;;;;;;16.73;9.00;;;2.70;99.90;;;;;;4998746;28;20038;-67
2022/11/20 02:23:14;;;;;;;15.93;8.82;;;2.60;99.90;;;;;;4995773;28;20512;-67
2022/11/20 02:25:42;;;;;;;19.58;9.65;;;2.60;99.90;;;;;;5001914;28;20026;-67
2022/11/20 02:28:09;;;;;;;16.80;8.43;;;2.70;99.90;;;;;;4998740;28;20030;-67
2022/11/20 02:30:34;;;;;;;20.95;9.23;;;2.70;99.90;;;;;;4996066;28;20026;-67
2022/11/20 02:33:00;;;;;;;16.58;9.52;;;2.70;99.90;;;;;;4997311;28;20026;-68
2022/11/20 02:35:25;;;;;;;21.20;8.88;;;2.70;99.90;;;;;;4997734;28;20018;-67
2022/11/20 02:37:54;;;;;;;20.30;9.13;;;2.70;99.90;;;;;;4996462;28;20034;-68
2022/11/20 02:40:20;;;;;;;15.10;7.47;;;2.70;99.90;;;;;;4997041;28;20041;-67
2022/11/20 02:42:46;;;;;;;20.35;9.05;;;2.70;99.90;;;;;;4997278;28;20921;-65
2022/11/20 02:45:12;;;;;;;16.17;8.60;;;2.60;99.90;;;;;;4980233;28;20053;-66
2022/11/20 02:47:37;;;;;;;16.73;8.90;;;2.60;99.90;;;;;;5003931;28;20034;-66
2022/11/20 02:50:04;;;;;;;18.23;8.90;;;2.60;99.90;;;;;;5000511;28;20380;-66
2022/11/20 02:52:30;;;;;;;19.75;8.68;;;2.50;99.90;;;;;;5006831;28;20428;-66
2022/11/20 02:54:56;;;;;;;18.55;9.20;;;2.50;99.90;;;;;;4998692;28;20022;-67
2022/11/20 02:57:21;;;;;;;19.33;9.18;;;2.50;99.90;;;;;;4992353;28;20034;-67
2022/11/20 02:59:47;;;;;;;18.42;9.07;;;2.50;99.90;;;;;;5000878;28;20042;-68
2022/11/20 03:02:12;;;;;;;17.38;9.45;;;2.40;99.90;;;;;;4994890;28;20034;-68
2022/11/20 03:04:38;;;;;;;21.30;10.50;;;2.40;99.90;;;;;;4997080;28;20026;-67
2022/11/20 03:07:04;;;;;;;18.42;9.73;;;2.40;99.90;;;;;;4998711;28;20137;-67
2022/11/20 03:09:29;;;;;;;19.52;9.05;;;2.50;99.90;;;;;;5002648;28;20030;-68
2022/11/20 03:11:55;;;;;;;18.52;10.10;;;2.50;99.90;;;;;;5007447;28;20052;-68
2022/11/20 03:14:20;;;;;;;18.70;8.90;;;2.50;99.90;;;;;;5010078;28;20037;-67
2022/11/20 03:16:46;;;;;;;16.15;9.23;;;2.50;99.90;;;;;;5003482;28;20030;-67
2022/11/20 03:19:12;;;;;;;18.17;8.48;;;2.50;99.90;;;;;;4996606;28;20049;-68
2022/11/20 03:21:37;;;;;;;18.67;10.40;;;2.50;99.90;;;;;;4999264;28;20471;-67
2022/11/20 03:24:03;;;;;;;19.92;9.43;;;2.50;99.90;;;;;;4998938;28;20053;-68
2022/11/20 03:26:29;;;;;;;18.65;9.18;;;2.50;99.90;;;;;;4999925;28;20027;-67
2022/11/20 03:29:00;;;;;;;18.85;9.88;;;2.40;99.90;;;;;;5002264;28;20038;-68
2022/11/20 03:31:32;;;;;;;27.88;10.55;;;2.50;99.90;;;;;;5002648;28;20511;-67
2022/11/20 03:33:58;;;;;;;18.88;9.23;;;2.50;99.90;;;;;;5002400;28;20018;-67
2022/11/20 03:36:26;;;;;;;15.35;9.23;;;2.60;99.90;;;;;;4996470;28;20406;-67
2022/11/20 03:38:54;;;;;;;18.02;9.52;;;2.60;99.90;;;;;;5007638;28;20033;-67
2022/11/20 03:41:21;;;;;;;19.38;10.05;;;2.60;99.90;;;;;;4999634;28;20037;-67
2022/11/20 03:43:51;;;;;;;21.15;9.77;;;2.60;99.90;;;;;;4984241;28;20050;-68
2022/11/20 03:46:17;;;;;;;19.83;10.10;;;2.60;99.90;;;;;;4993152;28;20878;-68
2022/11/20 03:48:43;;;;;;;18.27;9.25;;;2.60;99.90;;;;;;4999164;28;20069;-68
2022/11/20 03:51:12;;;;;;;16.40;8.45;;;2.60;99.90;;;;;;4995562;28;20053;-68
2022/11/20 03:53:38;;;;;;;22.35;10.13;;;2.60;99.90;;;;;;5000277;28;20030;-67
2022/11/20 03:56:04;;;;;;;17.80;9.40;;;2.60;99.90;;;;;;5001280;28;20113;-68
2022/11/20 03:58:30;;;;;;;20.02;10.02;;;2.60;99.90;;;;;;5007818;28;20034;-68
2022/11/20 04:00:56;;;;;;;18.65;9.40;;;2.60;99.90;;;;;;5004115;28;20057;-68
2022/11/20 04:03:21;;;;;;;18.45;9.68;;;2.60;99.90;;;;;;5000456;28;20037;-67
2022/11/20 04:05:47;;;;;;;19.15;9.88;;;2.70;99.90;;;;;;4993297;28;20026;-68
2022/11/20 04:08:12;;;;;;;19.80;10.32;;;2.70;99.90;;;;;;4996714;28;20100;-67
2022/11/20 04:10:38;;;;;;;17.10;8.38;;;2.70;99.90;;;;;;4997594;28;20053;-68
2022/11/20 04:13:03;;;;;;;20.48;9.48;;;2.70;99.90;;;;;;5005469;28;20448;-67
2022/11/20 04:15:29;;;;;;;19.67;10.00;;;2.70;99.90;;;;;;4993284;28;20494;-67
2022/11/20 04:17:54;;;;;;;17.15;9.43;;;2.70;99.90;;;;;;4995843;28;20022;-67
2022/11/20 04:20:20;;;;;;;16.77;9.55;;;2.60;99.90;;;;;;4995773;28;20460;-68
2022/11/20 04:22:45;;;;;;;20.45;9.48;;;2.70;99.90;;;;;;5009252;28;20455;-68
2022/11/20 04:25:11;;;;;;;15.35;8.68;;;2.70;99.90;;;;;;5000389;28;20034;-67
2022/11/20 04:27:36;;;;;;;19.02;9.90;;;2.70;99.90;;;;;;5000952;28;20423;-67
2022/11/20 04:30:02;;;;;;;21.10;10.55;;;2.70;99.90;;;;;;4997862;28;20026;-68
2022/11/20 04:32:28;;;;;;;19.05;10.55;;;2.70;99.90;;;;;;5000413;28;20113;-67
2022/11/20 04:34:53;;;;;;;23.73;10.27;;;2.70;99.90;;;;;;5005836;28;20038;-67
2022/11/20 04:37:19;;;;;;;18.73;9.73;;;2.70;99.90;;;;;;5000054;28;20069;-67
2022/11/20 04:39:44;;;;;;;20.00;10.48;;;2.70;99.90;;;;;;4994733;28;20038;-67
2022/11/20 04:42:28;;;;;;;20.23;9.48;;;2.70;99.90;;;;;;4999459;28;20037;-68
2022/11/20 04:44:55;;;;;;;17.38;9.57;;;2.60;99.90;;;;;;4978382;28;20037;-67
2022/11/20 04:47:20;;;;;;;20.38;8.82;;;2.60;99.90;;;;;;4994694;28;20045;-68
2022/11/20 04:49:46;;;;;;;20.38;10.60;;;2.60;99.90;;;;;;5006656;28;20030;-68
2022/11/20 04:52:12;;;;;;;21.67;10.10;;;2.50;99.90;;;;;;5004326;28;20409;-67
2022/11/20 04:54:37;;;;;;;20.70;11.45;;;2.50;99.90;;;;;;5003548;28;20022;-68
2022/11/20 04:57:03;;;;;;;21.05;10.77;;;2.50;99.90;;;;;;5005941;28;20030;-67
2022/11/20 04:59:29;;;;;;;17.27;9.32;;;2.60;99.90;;;;;;5006405;28;20034;-67
2022/11/20 05:01:54;;;;;;;18.02;9.27;;;2.50;99.90;;;;;;4999074;28;20026;-68
2022/11/20 05:04:20;;;;;;;19.90;10.20;;;2.50;99.90;;;;;;5006140;28;20026;-68
2022/11/20 05:06:45;;;;;;;18.42;9.50;;;2.40;99.90;;;;;;5001872;28;20037;-68
2022/11/20 05:09:12;;;;;;;17.30;9.50;;;2.40;99.90;;;;;;5003393;28;20641;-68
2022/11/20 05:11:37;;;;;;;16.52;8.63;;;2.40;99.90;;;;;;5000323;28;20026;-68
2022/11/20 05:14:03;;;;;;;20.73;11.20;;;2.40;99.90;;;;;;4993934;28;20113;-68
2022/11/20 05:16:28;;;;;;;19.40;9.80;;;2.30;99.90;;;;;;4997381;28;20111;-68
2022/11/20 05:18:54;;;;;;;20.48;10.07;;;2.30;99.90;;;;;;5006792;28;20030;-68
2022/11/20 05:21:21;;;;;;;21.30;9.98;;;2.30;99.90;;;;;;5005794;28;20048;-67
2022/11/20 05:23:47;;;;;;;22.85;10.77;;;2.30;99.90;;;;;;4993932;28;20034;-67
2022/11/20 05:26:23;;;;;;;21.45;10.45;;;2.30;99.90;;;;;;4997671;28;20038;-68
2022/11/20 05:28:50;;;;;;;20.40;11.80;;;2.30;99.90;;;;;;5000534;28;20050;-68
2022/11/20 05:31:21;;;;;;;20.35;10.45;;;2.40;99.90;;;;;;5002036;28;20496;-68
2022/11/20 05:33:46;;;;;;;19.58;9.80;;;2.40;99.90;;;;;;5007351;28;20022;-67
2022/11/20 05:36:13;;;;;;;20.13;9.13;;;2.40;99.90;;;;;;5007139;28;20056;-67
2022/11/20 05:38:39;;;;;;;18.95;9.20;;;2.50;99.90;;;;;;4999403;28;20480;-68
2022/11/20 05:41:10;;;;;;;20.33;9.50;;;2.50;99.90;;;;;;4997371;28;20058;-66
2022/11/20 05:43:37;;;;;;;22.73;10.68;;;2.50;99.90;;;;;;4981659;28;20463;-67
2022/11/20 05:46:04;;;;;;;19.77;9.13;;;2.50;99.90;;;;;;5007172;28;20025;-66
2022/11/20 05:48:30;;;;;;;22.17;9.88;;;2.50;99.90;;;;;;5007507;28;20038;-67
2022/11/20 05:51:01;;;;;;;21.83;10.55;;;2.50;99.90;;;;;;5003791;28;20662;-67
2022/11/20 05:53:28;;;;;;;22.25;9.90;;;2.50;99.90;;;;;;5003487;28;20026;-68
2022/11/20 05:56:05;;;;;;;18.90;9.70;;;2.50;99.90;;;;;;5001359;28;20480;-67
2022/11/20 05:58:32;;;;;;;22.60;10.30;;;2.50;99.90;;;;;;5003948;28;20042;-68
2022/11/20 06:01:04;;;;;;;17.35;9.57;;;2.50;99.90;;;;;;5003435;28;20042;-68
2022/11/20 06:03:29;;;;;;;24.27;10.75;;;2.50;99.90;;;;;;5003514;28;20481;-67
2022/11/20 06:05:55;;;;;;;21.98;11.25;;;2.50;99.90;;;;;;5001569;28;20117;-68
2022/11/20 06:08:21;;;;;;;19.58;9.50;;;2.50;99.90;;;;;;4998326;28;20057;-67
2022/11/20 06:10:46;;;;;;;19.65;9.80;;;2.50;99.90;;;;;;4997586;28;20488;-67
2022/11/20 06:13:12;;;;;;;22.50;10.40;;;2.60;99.90;;;;;;5003348;28;20120;-68
2022/11/20 06:15:37;;;;;;;18.63;10.20;;;2.50;99.90;;;;;;4999460;28;20026;-69
2022/11/20 06:18:03;;;;;;;20.05;10.68;;;2.50;99.90;;;;;;5003662;28;20125;-67
2022/11/20 06:20:29;;;;;;;22.27;11.23;;;2.50;99.90;;;;;;4998201;28;20030;-67
2022/11/20 06:22:54;;;;;;;26.85;11.30;;;2.60;99.90;;;;;;5007080;28;20034;-68
2022/11/20 06:25:20;;;;;;;22.65;12.23;;;2.50;99.90;;;;;;5008310;28;20104;-68
2022/11/20 06:27:45;;;;;;;20.95;10.25;;;2.50;99.90;;;;;;4997619;28;20045;-68
2022/11/20 06:30:11;;;;;;;22.05;10.70;;;2.50;99.90;;;;;;5006547;28;20029;-67
2022/11/20 06:32:37;;;;;;;26.27;12.55;;;2.50;99.90;;;;;;5012164;28;20045;-68
2022/11/20 06:35:03;;;;;;;23.08;11.10;;;2.60;99.90;;;;;;4998655;28;20046;-68
2022/11/20 06:37:29;;;;;;;28.23;11.35;;;2.60;99.90;;;;;;5013430;28;20504;-67
2022/11/20 06:39:54;;;;;;;22.48;11.65;;;2.60;99.90;;;;;;5018943;28;20056;-66
2022/11/20 06:42:20;;;;;;;21.10;10.57;;;2.60;99.90;;;;;;5011556;28;20026;-67
2022/11/20 06:44:45;;;;;;;21.23;10.32;;;2.60;99.90;;;;;;4993769;28;20291;-68
2022/11/20 06:47:11;;;;;;;23.85;12.10;;;2.70;99.90;;;;;;5004100;28;20064;-67
2022/11/20 06:49:38;;;;;;;25.33;12.20;;;2.70;99.90;;;;;;5007857;28;20134;-67
2022/11/20 06:52:04;;;;;;;25.50;12.07;;;2.60;99.90;;;;;;4995443;28;20384;-68
2022/11/20 06:54:30;;;;;;;21.60;10.60;;;2.60;99.90;;;;;;5000603;28;20034;-68
2022/11/20 06:56:55;;;;;;;25.13;10.90;;;2.50;99.90;;;;;;4997086;28;20029;-68
2022/11/20 06:59:21;;;;;;;20.08;10.07;;;2.50;99.90;;;;;;5007495;28;20026;-67
2022/11/20 07:01:46;;;;;;;22.20;11.23;;;2.50;99.90;;;;;;5003570;28;20029;-68
2022/11/20 07:04:12;;;;;;;23.40;11.57;;;2.50;99.90;;;;;;4996587;28;20527;-68
2022/11/20 07:06:38;;;;;;;27.92;12.70;;;2.50;99.90;;;;;;5007029;28;20026;-67
2022/11/20 07:09:04;;;;;;;24.35;13.25;;;2.50;99.90;;;;;;4999732;28;20033;-68
2022/11/20 07:11:29;;;;;;;23.50;11.35;;;2.50;99.90;;;;;;4998561;28;20030;-67
2022/11/20 07:13:57;;;;;;;25.48;12.60;;;2.60;99.90;;;;;;5000976;28;20025;-68
2022/11/20 07:16:22;;;;;;;21.73;11.25;;;2.60;99.90;;;;;;5000045;28;20045;-67
2022/11/20 07:18:48;;;;;;;24.00;11.38;;;2.60;99.90;;;;;;5006320;28;20022;-68
2022/11/20 07:21:13;;;;;;;23.83;11.45;;;2.70;99.90;;;;;;4995248;28;20034;-67
2022/11/20 07:23:39;;;;;;;25.88;10.80;;;2.80;99.90;;;;;;5004054;28;20045;-67
2022/11/20 07:26:06;;;;;;;24.45;11.55;;;2.70;99.90;;;;;;4994387;28;20085;-68
2022/11/20 07:28:32;;;;;;;22.20;10.75;;;2.80;99.90;;;;;;5000191;28;20030;-68
2022/11/20 07:30:57;;;;;;;23.65;11.25;;;2.80;99.90;;;;;;5002590;28;20025;-68
2022/11/20 07:33:23;;;;;;;22.58;10.65;;;2.80;99.90;;;;;;5004797;28;20025;-67
2022/11/20 07:35:48;;;;;;;21.70;10.43;;;2.80;99.90;;;;;;5006415;28;20427;-67
2022/11/20 07:38:14;;;;;;;21.88;11.32;;;2.80;99.90;;;;;;5006770;28;20029;-67
2022/11/20 07:40:40;;;;;;;23.73;11.50;;;2.90;99.90;;;;;;5003501;28;20068;-66
2022/11/20 07:43:05;;;;;;;22.17;12.68;;;3.00;99.90;;;;;;5007553;28;20036;-66
2022/11/20 07:45:31;;;;;;;24.77;13.25;;;3.00;99.90;;;;;;4974167;28;20080;-65
2022/11/20 07:47:56;;;;;;;26.42;13.40;;;3.00;99.90;;;;;;5003392;28;20030;-66
2022/11/20 07:50:22;;;;;;;27.00;13.35;;;3.00;99.90;;;;;;5003250;28;20036;-66
2022/11/20 07:52:47;;;;;;;26.05;11.73;;;3.00;99.90;;;;;;5001879;28;20057;-65
2022/11/20 07:55:13;;;;;;;23.55;11.68;;;3.10;99.90;;;;;;5002502;28;20491;-66
2022/11/20 07:57:39;;;;;;;24.20;12.02;;;3.10;99.90;;;;;;5002604;28;20109;-66
2022/11/20 08:00:08;;;;;;;25.55;12.05;;;3.00;99.90;;;;;;4998846;28;20030;-66
2022/11/20 08:02:36;;;;;;;23.35;11.82;;;3.00;99.90;;;;;;4990822;28;20054;-66
2022/11/20 08:05:02;;;;;;;24.13;12.68;;;3.00;99.90;;;;;;5000046;28;20044;-67
2022/11/20 08:07:27;;;;;;;23.40;12.45;;;3.00;99.90;;;;;;4995705;28;20022;-66
2022/11/20 08:09:53;;;;;;;23.35;12.18;;;3.10;99.90;;;;;;4996111;28;20025;-65
2022/11/20 08:15:05;;;;;;;23.08;11.02;;;3.30;99.90;;;;;;5004699;28;20041;-66
2022/11/20 08:17:30;;;;;;;24.17;13.35;;;3.30;99.90;;;;;;4996901;28;20035;-66
2022/11/20 08:19:56;;;;;;;24.02;11.60;;;3.40;99.90;;;;;;5006715;28;20037;-66
2022/11/20 08:22:21;;;;;;;28.63;12.27;;;3.40;99.90;;;;;;4996415;28;20069;-66
2022/11/20 08:24:48;;;;;;;26.02;13.00;;;3.40;99.90;;;;;;5006626;28;20495;-66
2022/11/20 08:27:13;;;;;;;26.55;13.77;;;3.40;99.90;;;;;;5010828;28;20026;-66
2022/11/20 08:29:39;;;;;;;30.42;14.40;;;3.40;99.90;;;;;;5003642;28;20052;-66
2022/11/20 08:32:04;;;;;;;25.63;12.57;;;3.60;99.90;;;;;;5008567;28;20030;-66
2022/11/20 08:34:30;;;;;;;26.70;12.75;;;3.60;99.90;;;;;;5009120;28;20025;-66
2022/11/20 08:36:55;;;;;;;22.58;11.60;;;3.70;99.90;;;;;;5006210;28;20560;-66
2022/11/20 08:39:21;;;;;;;21.83;11.85;;;3.70;99.90;;;;;;5011109;28;20426;-66
2022/11/20 08:41:46;;;;;;;22.98;12.82;;;3.80;99.90;;;;;;5006437;28;20499;-66
2022/11/20 08:44:12;;;;;;;27.50;13.10;;;3.80;99.90;;;;;;5005256;28;20041;-66
2022/11/20 08:46:40;;;;;;;27.27;12.15;;;3.80;99.90;;;;;;4985055;28;20042;-66
2022/11/20 08:49:11;;;;;;;21.55;10.90;;;3.80;99.90;;;;;;5003485;28;20022;-66
2022/11/20 08:51:38;;;;;;;23.42;12.02;;;3.80;99.90;;;;;;5003375;28;20030;-66
2022/11/20 08:54:04;;;;;;;24.50;12.27;;;3.80;99.90;;;;;;5000336;28;20029;-66
2022/11/20 08:56:30;;;;;;;22.50;12.00;;;3.90;99.90;;;;;;5009439;28;20030;-66
2022/11/20 08:58:56;;;;;;;26.30;12.32;;;3.90;99.90;;;;;;5006878;28;20034;-66
2022/11/20 09:01:23;;;;;;;24.17;12.43;;;4.00;99.90;;;;;;5008699;28;20041;-65
2022/11/20 09:03:49;;;;;;;26.25;12.20;;;4.10;99.90;;;;;;5006342;28;20119;-66
2022/11/20 09:06:15;;;;;;;23.23;12.80;;;4.10;99.90;;;;;;5010757;28;20050;-67
2022/11/20 09:08:42;;;;;;;23.83;11.80;;;4.20;99.90;;;;;;5008142;28;20022;-66
2022/11/20 09:11:08;;;;;;;38.30;20.63;;;4.30;99.90;;;;;;4997300;28;20109;-65
2022/11/20 09:13:35;;;;;;;25.58;13.13;;;4.30;99.90;;;;;;5009372;28;20038;-67
2022/11/20 09:16:06;;;;;;;22.92;12.13;;;4.50;99.90;;;;;;5003713;28;20045;-67
2022/11/20 09:18:32;;;;;;;22.17;11.48;;;4.80;99.90;;;;;;5003813;28;20450;-67
2022/11/20 09:21:02;;;;;;;24.73;11.55;;;5.00;99.90;;;;;;5004285;28;20077;-67
2022/11/20 09:23:32;;;;;;;21.25;11.88;;;4.90;99.90;;;;;;4995913;28;20021;-67
2022/11/20 09:25:59;;;;;;;24.63;11.73;;;4.70;99.90;;;;;;5004288;28;20054;-67
2022/11/20 09:28:25;;;;;;;26.60;12.82;;;4.80;99.90;;;;;;5003287;28;20117;-67
2022/11/20 09:30:51;;;;;;;29.80;11.93;;;4.80;99.90;;;;;;5004634;28;20061;-67
2022/11/20 09:33:17;;;;;;;24.50;12.55;;;5.00;99.90;;;;;;4999721;28;20034;-69
2022/11/20 09:35:43;;;;;;;23.00;12.45;;;4.80;99.90;;;;;;5005786;28;20526;-67
2022/11/20 09:38:10;;;;;;;29.55;14.18;;;4.80;99.90;;;;;;5001980;28;20158;-67
2022/11/20 09:40:43;;;;;;;25.75;12.00;;;4.70;99.90;;;;;;5000578;28;20026;-67
2022/11/20 09:43:24;;;;;;;21.27;11.15;;;4.80;99.90;;;;;;5001492;28;20052;-67
2022/11/20 09:46:12;;;;;;;24.90;11.75;;;5.00;99.90;;;;;;4987484;28;20060;-66
2022/11/20 09:49:02;;;;;;;21.88;11.23;;;5.10;99.90;;;;;;5002168;28;20030;-67
2022/11/20 09:51:53;;;;;;;25.50;12.45;;;5.10;99.90;;;;;;4998700;28;20030;-66
2022/11/20 09:54:21;;;;;;;21.38;10.82;;;5.10;99.90;;;;;;5007182;28;20038;-67
2022/11/20 09:56:56;;;;;;;21.83;11.20;;;5.00;99.90;;;;;;5005358;28;20038;-67
2022/11/20 09:59:46;;;;;;;22.48;11.43;;;5.00;99.90;;;;;;5003954;28;20121;-65
2022/11/20 10:02:50;;;;;;;21.08;11.02;;;5.10;99.90;;;;;;4990597;28;20068;-66
2022/11/20 10:05:30;;;;;;;25.27;11.70;;;5.30;99.90;;;;;;4993801;28;20050;-67
2022/11/20 10:08:04;;;;;;;23.38;10.68;;;5.30;99.90;;;;;;5008499;28;20300;-67
2022/11/20 10:10:44;;;;;;;19.98;9.98;;;5.50;99.90;;;;;;4997068;28;20037;-67
2022/11/20 10:13:16;;;;;;;20.05;10.77;;;5.60;99.90;;;;;;5002424;28;20082;-67
2022/11/20 10:15:56;;;;;;;21.55;10.80;;;5.80;99.90;;;;;;5003200;28;20034;-67
2022/11/20 10:18:59;;;;;;;20.55;10.52;;;5.90;99.90;;;;;;4995186;28;20030;-67
2022/11/20 10:21:47;;;;;;;21.33;10.57;;;5.80;99.90;;;;;;5005012;28;20035;-67
2022/11/20 10:24:41;;;;;;;22.45;10.60;;;6.00;99.90;;;;;;5000887;28;20037;-67
2022/11/20 10:27:06;;;;;;;21.88;10.05;;;6.00;99.90;;;;;;4987030;28;20096;-67
2022/11/20 10:29:34;;;;;;;23.08;10.70;;;5.80;99.90;;;;;;5003273;28;20535;-66
2022/11/20 10:32:04;;;;;;;20.58;10.45;;;5.60;99.90;;;;;;4997224;28;20025;-66
2022/11/20 10:34:53;;;;;;;18.88;9.18;;;5.70;99.90;;;;;;4997621;28;20054;-66
2022/11/20 10:37:24;;;;;;;18.63;10.20;;;5.80;99.90;;;;;;4994574;28;20034;-66
2022/11/20 10:40:19;;;;;;;24.48;11.52;;;5.80;99.90;;;;;;5003212;28;20026;-66
2022/11/20 10:43:14;;;;;;;23.25;10.77;;;5.60;99.90;;;;;;4994988;28;20044;-67
2022/11/20 10:45:58;;;;;;;22.90;11.45;;;5.40;99.90;;;;;;4964006;28;20096;-67
2022/11/20 10:48:28;;;;;;;21.25;12.20;;;5.30;99.90;;;;;;5007236;28;20026;-66
2022/11/20 10:50:59;;;;;;;24.85;14.30;;;5.30;99.90;;;;;;5002975;28;20121;-66
2022/11/20 10:53:43;;;;;;;22.38;11.82;;;5.30;99.90;;;;;;5009810;28;20026;-66
2022/11/20 10:56:43;;;;;;;29.05;13.20;;;5.40;99.90;;;;;;5003294;28;20535;-66
2022/11/20 10:59:32;;;;;;;33.13;13.63;;;5.50;99.90;;;;;;4994558;28;20463;-66
2022/11/20 11:01:58;;;;;;;25.15;13.15;;;5.80;99.90;;;;;;5002050;28;20424;-67
2022/11/20 11:04:32;;;;;;;25.95;12.85;;;5.90;99.90;;;;;;5001487;28;20076;-66
2022/11/20 11:07:16;;;;;;;;;;;6.10;99.90;;;;;;4998045;28;20113;-67
2022/11/20 11:09:47;;;;;;;26.42;13.32;;;6.30;99.90;;;;;;4997364;28;19956;-67
2022/11/20 11:12:13;;;;;;;22.30;11.18;;;6.10;99.90;;;;;;5001334;28;20044;-66
2022/11/20 11:14:53;;;;;;;24.90;12.88;;;6.30;99.90;;;;;;4991907;28;20492;-67
2022/11/20 11:17:34;;;;;;;23.17;12.40;;;6.30;99.90;;;;;;4998033;28;20029;-67
2022/11/20 11:20:18;;;;;;;21.33;11.43;;;6.30;99.90;;;;;;4998419;28;20446;-67
2022/11/20 11:22:53;;;;;;;26.80;12.25;;;6.30;99.90;;;;;;4999582;28;20045;-66
2022/11/20 11:25:19;;;;;;;;;;;6.40;99.90;;;;;;5000428;28;20022;-66
2022/11/20 11:27:49;;;;;;;23.77;11.82;;;6.30;99.90;;;;;;4998897;28;19928;-67
2022/11/20 11:30:17;;;;;;;24.70;12.68;;;6.20;99.90;;;;;;5006874;28;20091;-67
2022/11/20 11:32:43;;;;;;;26.38;13.55;;;6.00;99.90;;;;;;5002204;28;20021;-67
2022/11/20 11:35:27;;;;;;;20.40;11.65;;;5.80;99.90;;;;;;4999358;28;20040;-67
2022/11/20 11:38:01;;;;;;;23.57;11.83;;;5.80;99.90;;;;;;5001239;28;20492;-67
2022/11/20 11:40:30;;;;;;;24.33;12.63;;;5.70;99.90;;;;;;5000219;28;20316;-67
2022/11/20 11:45:04;;;;;;;29.35;12.82;;;5.60;99.90;;;;;;5001224;28;20030;-67
2022/11/20 11:46:02;;;;;;;22.02;11.63;;;5.60;99.90;;;;;;4976349;28;20042;-67
2022/11/20 11:48:27;;;;;;;23.30;12.77;;;5.70;99.90;;;;;;4995960;28;20049;-67
2022/11/20 11:50:53;;;;;;;23.40;11.80;;;5.70;99.90;;;;;;4987935;28;20042;-67
2022/11/20 11:53:23;;;;;;;24.42;12.38;;;5.80;99.90;;;;;;5010457;28;20034;-67
2022/11/20 11:55:57;;;;;;;23.55;12.35;;;5.70;99.90;;;;;;5001494;28;20070;-67
2022/11/20 11:58:44;;;;;;;23.33;12.48;;;5.70;99.90;;;;;;5005178;28;20030;-68
2022/11/20 12:01:29;;;;;;;30.17;12.02;;;5.70;99.90;;;;;;5006623;28;20113;-68
2022/11/20 12:04:28;;;;;;;23.45;11.77;;;5.70;99.90;;;;;;5002058;28;20030;-68
2022/11/20 12:07:07;;;;;;;25.38;12.80;;;5.80;99.90;;;;;;4993871;28;20026;-68
2022/11/20 12:09:41;;;;;;;23.85;12.27;;;5.70;99.90;;;;;;4999430;28;20054;-67
2022/11/20 12:12:13;;;;;;;24.92;12.63;;;5.70;99.90;;;;;;4991273;28;20030;-68
2022/11/20 12:14:44;;;;;;;24.42;11.93;;;5.70;99.90;;;;;;4997531;28;20049;-67
2022/11/20 12:17:12;;;;;;;25.85;11.60;;;5.60;99.90;;;;;;5000331;28;20081;-67
2022/11/20 12:19:38;;;;;;;20.88;11.30;;;5.60;99.90;;;;;;4990848;28;20030;-67
2022/11/20 12:22:42;;;;;;;27.30;12.68;;;5.60;99.90;;;;;;4993899;28;20030;-67
2022/11/20 12:25:14;;;;;;;21.83;11.27;;;5.80;99.90;;;;;;4999176;28;20034;-67
2022/11/20 12:28:19;;;;;;;21.50;11.35;;;5.90;99.90;;;;;;4988988;28;20084;-67
2022/11/20 12:31:13;;;;;;;24.20;11.50;;;5.90;99.90;;;;;;5002302;28;20149;-67
2022/11/20 12:33:45;;;;;;;23.95;11.85;;;6.00;99.90;;;;;;4988832;28;20089;-67
2022/11/20 12:36:27;;;;;;;22.40;11.52;;;6.00;99.90;;;;;;4999223;28;20105;-68
2022/11/20 12:39:02;;;;;;;23.70;11.68;;;5.90;99.90;;;;;;4996066;28;20057;-67
2022/11/20 12:45:11;;;;;;;24.10;11.88;;;6.00;99.90;;;;;;4996607;28;20033;-67
2022/11/20 12:48:08;;;;;;;24.92;11.77;;;5.80;99.90;;;;;;4988362;28;20047;-67
2022/11/20 12:51:06;;;;;;;20.77;11.13;;;5.80;99.90;;;;;;4997748;28;20121;-69
2022/11/20 12:53:59;;;;;;;24.00;12.07;;;5.80;99.90;;;;;;4971925;28;20030;-67
2022/11/20 12:56:39;;;;;;;25.67;11.40;;;5.80;99.90;;;;;;5007338;28;20038;-66
2022/11/20 12:59:20;;;;;;;25.48;11.90;;;5.80;99.90;;;;;;5002268;28;20448;-67
2022/11/20 13:02:01;;;;;;;29.13;11.25;;;5.80;99.90;;;;;;5007840;28;20022;-66
2022/11/20 13:05:06;;;;;;;20.45;10.13;;;5.80;99.90;;;;;;5002998;28;20040;-66
2022/11/20 13:07:34;;;;;;;24.17;11.15;;;5.90;99.90;;;;;;5000901;28;20496;-66
2022/11/20 13:10:00;;;;;;;27.00;11.98;;;5.90;99.90;;;;;;5007571;28;20057;-66